createdAt,value
2023-04-24T00:01:44.072Z,7.90
2023-04-24T00:04:12.279Z,7.97
2023-04-24T00:06:39.907Z,7.87
2023-04-24T00:09:06.885Z,7.94
2023-04-24T00:11:33.775Z,7.89
2023-04-24T00:14:00.698Z,7.85
2023-04-24T00:16:28.172Z,7.84
2023-04-24T00:18:55.727Z,7.86
2023-04-24T00:21:22.898Z,7.79
2023-04-24T00:23:49.836Z,7.79
2023-04-24T00:26:16.763Z,7.80
2023-04-24T00:28:44.096Z,7.85
2023-04-24T00:31:11.148Z,7.80
2023-04-24T00:33:38.140Z,7.83
2023-04-24T00:36:05.125Z,7.80
2023-04-24T00:38:32.041Z,7.81
2023-04-24T00:40:58.947Z,7.81
2023-04-24T00:43:26.175Z,7.86
2023-04-24T00:45:53.216Z,7.80
2023-04-24T00:48:21.823Z,7.78
2023-04-24T00:50:48.708Z,7.81
2023-04-24T00:53:16.162Z,7.84
2023-04-24T00:55:43.374Z,7.88
2023-04-24T00:58:11.006Z,7.88
2023-04-24T01:00:38.330Z,7.82
2023-04-24T01:03:07.294Z,7.79
2023-04-24T01:05:35.623Z,7.78
2023-04-24T01:08:03.279Z,7.79
2023-04-24T01:10:33.161Z,7.80
2023-04-24T01:13:01.062Z,7.82
2023-04-24T01:15:27.990Z,7.80
2023-04-24T01:17:55.025Z,7.79
2023-04-24T01:20:22.279Z,7.80
2023-04-24T01:22:49.976Z,7.82
2023-04-24T01:25:17.238Z,7.80
2023-04-24T01:27:44.804Z,7.85
2023-04-24T01:30:13.198Z,7.82
2023-04-24T01:32:41.082Z,7.84
2023-04-24T01:35:09.256Z,7.85
2023-04-24T01:37:38.536Z,7.83
2023-04-24T01:40:08.404Z,7.86
2023-04-24T01:42:36.573Z,7.89
2023-04-24T01:45:06.828Z,7.87
2023-04-24T01:47:33.749Z,7.88
2023-04-24T01:50:00.683Z,7.91
2023-04-24T01:52:28.412Z,7.91
2023-04-24T01:54:57.052Z,7.91
2023-04-24T01:57:24.596Z,7.90
2023-04-24T01:59:52.721Z,7.89
2023-04-24T02:02:20.224Z,7.88
2023-04-24T02:04:47.162Z,7.91
2023-04-24T02:07:14.085Z,7.95
2023-04-24T02:09:41.203Z,7.93
2023-04-24T02:12:08.642Z,7.92
2023-04-24T02:14:35.801Z,7.89
2023-04-24T02:17:02.666Z,7.88
2023-04-24T02:19:29.630Z,7.91
2023-04-24T02:21:56.580Z,7.92
2023-04-24T02:24:23.493Z,7.88
2023-04-24T02:26:50.512Z,7.88
2023-04-24T02:29:17.411Z,7.88
2023-04-24T02:31:44.348Z,7.87
2023-04-24T02:34:11.612Z,7.85
2023-04-24T02:36:38.535Z,7.85
2023-04-24T02:39:05.421Z,7.92
2023-04-24T02:41:33.871Z,7.90
2023-04-24T02:44:00.984Z,7.90
2023-04-24T02:46:28.375Z,7.90
2023-04-24T02:48:55.307Z,7.86
2023-04-24T02:51:22.308Z,7.85
2023-04-24T02:53:49.218Z,7.83
2023-04-24T02:56:16.164Z,7.84
2023-04-24T02:58:43.648Z,7.79
2023-04-24T03:01:13.264Z,7.79
2023-04-24T03:03:41.333Z,7.71
2023-04-24T03:06:09.255Z,7.69
2023-04-24T03:08:36.835Z,7.69
2023-04-24T03:11:03.802Z,7.65
2023-04-24T03:13:31.073Z,7.57
2023-04-24T03:15:57.966Z,7.53
2023-04-24T03:18:24.925Z,7.45
2023-04-24T03:20:52.044Z,7.46
2023-04-24T03:23:18.934Z,7.46
2023-04-24T03:25:46.550Z,7.39
2023-04-24T03:28:13.593Z,7.42
2023-04-24T03:30:40.502Z,7.40
2023-04-24T03:33:07.368Z,7.36
2023-04-24T03:35:34.266Z,7.33
2023-04-24T03:38:01.134Z,7.31
2023-04-24T03:40:29.707Z,7.27
2023-04-24T03:42:56.586Z,7.23
2023-04-24T03:45:23.701Z,7.18
2023-04-24T03:47:50.743Z,7.15
2023-04-24T03:50:17.713Z,7.13
2023-04-24T03:52:44.722Z,7.12
2023-04-24T03:55:14.128Z,7.14
2023-04-24T03:57:44.410Z,7.09
2023-04-24T04:00:12.718Z,7.11
2023-04-24T04:02:39.755Z,7.10
2023-04-24T04:05:07.044Z,7.08
2023-04-24T04:07:34.041Z,7.10
2023-04-24T04:10:00.917Z,7.05
2023-04-24T04:12:27.864Z,7.08
2023-04-24T04:14:54.748Z,7.00
2023-04-24T04:17:21.615Z,7.01
2023-04-24T04:19:48.861Z,7.01
2023-04-24T04:22:15.713Z,7.01
2023-04-24T04:24:42.595Z,6.98
2023-04-24T04:27:10.061Z,6.94
2023-04-24T04:29:36.993Z,6.91
2023-04-24T04:32:04.168Z,6.92
2023-04-24T04:34:32.699Z,6.89
2023-04-24T04:37:03.371Z,6.87
2023-04-24T04:39:31.105Z,6.83
2023-04-24T04:41:58.230Z,6.84
2023-04-24T04:44:25.591Z,6.77
2023-04-24T04:46:54.392Z,6.78
2023-04-24T04:49:22.844Z,6.77
2023-04-24T04:51:49.802Z,6.75
2023-04-24T04:54:17.076Z,6.74
2023-04-24T04:56:44.104Z,6.73
2023-04-24T04:59:12.211Z,6.71
2023-04-24T05:01:39.704Z,6.71
2023-04-24T05:04:06.917Z,6.68
2023-04-24T05:06:34.045Z,6.69
2023-04-24T05:09:01.323Z,6.68
2023-04-24T05:11:28.244Z,6.69
2023-04-24T05:13:55.092Z,6.64
2023-04-24T05:16:22.734Z,6.66
2023-04-24T05:18:49.723Z,6.64
2023-04-24T05:21:16.917Z,6.58
2023-04-24T05:23:43.792Z,6.58
2023-04-24T05:26:10.871Z,6.59
2023-04-24T05:28:38.157Z,6.56
2023-04-24T05:31:05.433Z,6.57
2023-04-24T05:33:32.404Z,6.62
2023-04-24T05:35:59.343Z,6.59
2023-04-24T05:38:26.319Z,6.57
2023-04-24T05:40:53.593Z,6.61
2023-04-24T05:43:21.004Z,6.60
2023-04-24T05:45:48.083Z,6.63
2023-04-24T05:48:15.277Z,6.62
2023-04-24T05:50:42.155Z,6.67
2023-04-24T05:53:11.816Z,6.64
2023-04-24T05:55:38.922Z,6.69
2023-04-24T05:58:05.996Z,6.66
2023-04-24T06:00:33.816Z,6.67
2023-04-24T06:03:02.303Z,6.68
2023-04-24T06:05:29.466Z,6.74
2023-04-24T06:07:56.519Z,6.72
2023-04-24T06:10:23.631Z,6.73
2023-04-24T06:12:50.759Z,6.71
2023-04-24T06:15:18.027Z,6.72
2023-04-24T06:17:45.050Z,6.74
2023-04-24T06:20:12.792Z,6.70
2023-04-24T06:22:41.219Z,6.71
2023-04-24T06:25:09.084Z,6.78
2023-04-24T06:27:36.502Z,6.76
2023-04-24T06:30:04.333Z,6.77
2023-04-24T06:32:32.224Z,6.78
2023-04-24T06:34:59.652Z,6.83
2023-04-24T06:37:27.272Z,6.88
2023-04-24T06:39:54.159Z,6.85
2023-04-24T06:42:25.879Z,6.88
2023-04-24T06:44:52.744Z,6.84
2023-04-24T06:47:19.948Z,6.83
2023-04-24T06:49:46.855Z,6.90
2023-04-24T06:52:13.903Z,6.88
2023-04-24T06:54:42.823Z,6.91
2023-04-24T06:57:10.759Z,6.94
2023-04-24T06:59:38.411Z,6.97
2023-04-24T07:02:05.593Z,6.99
2023-04-24T07:04:32.808Z,7.03
2023-04-24T07:06:59.800Z,7.11
2023-04-24T07:09:27.794Z,7.09
2023-04-24T07:11:55.076Z,7.12
2023-04-24T07:14:22.353Z,7.14
2023-04-24T07:16:49.916Z,7.13
2023-04-24T07:19:16.887Z,7.17
2023-04-24T07:21:43.955Z,7.17
2023-04-24T07:24:12.085Z,7.23
2023-04-24T07:26:40.867Z,7.24
2023-04-24T07:29:09.264Z,7.16
2023-04-24T07:31:37.315Z,7.21
2023-04-24T07:34:04.255Z,7.22
2023-04-24T07:36:31.356Z,7.29
2023-04-24T07:38:58.547Z,7.37
2023-04-24T07:41:25.688Z,7.41
2023-04-24T07:43:54.868Z,7.39
2023-04-24T07:46:22.766Z,7.47
2023-04-24T07:49:01.874Z,7.52
2023-04-24T07:51:39.605Z,7.53
2023-04-24T07:54:07.334Z,7.55
2023-04-24T07:56:35.090Z,7.59
2023-04-24T07:59:02.668Z,7.58
2023-04-24T08:01:29.648Z,7.63
2023-04-24T08:03:57.266Z,7.61
2023-04-24T08:06:25.000Z,7.66
2023-04-24T08:08:53.151Z,7.68
2023-04-24T08:11:20.078Z,7.74
2023-04-24T08:13:47.026Z,7.70
2023-04-24T08:16:14.382Z,7.74
2023-04-24T08:18:41.524Z,7.79
2023-04-24T08:21:08.458Z,7.79
2023-04-24T08:23:35.325Z,7.87
2023-04-24T08:26:02.212Z,7.90
2023-04-24T08:28:29.281Z,7.98
2023-04-24T08:30:56.265Z,8.11
2023-04-24T08:33:24.848Z,8.26
2023-04-24T08:35:51.984Z,8.33
2023-04-24T08:38:18.935Z,8.43
2023-04-24T08:40:47.296Z,8.51
2023-04-24T08:43:15.337Z,8.58
2023-04-24T08:45:42.569Z,8.63
2023-04-24T08:48:19.705Z,8.56
2023-04-24T08:50:55.623Z,8.55
2023-04-24T08:53:22.775Z,8.49
2023-04-24T08:55:50.870Z,8.45
2023-04-24T08:58:19.280Z,8.41
2023-04-24T09:00:48.225Z,8.40
2023-04-24T09:03:17.703Z,8.40
2023-04-24T09:05:48.831Z,8.44
2023-04-24T09:08:20.646Z,8.46
2023-04-24T09:10:50.547Z,8.46
2023-04-24T09:13:21.026Z,8.40
2023-04-24T09:15:48.414Z,8.48
2023-04-24T09:18:15.564Z,8.48
2023-04-24T09:21:02.037Z,8.43
2023-04-24T09:23:31.495Z,8.48
2023-04-24T09:26:01.402Z,8.49
2023-04-24T09:28:34.690Z,8.50
2023-04-24T09:31:15.932Z,8.55
2023-04-24T09:34:13.839Z,8.61
2023-04-24T09:36:44.062Z,8.60
2023-04-24T09:39:17.442Z,8.69
2023-04-24T09:41:51.025Z,8.72
2023-04-24T09:44:23.609Z,8.76
2023-04-24T09:46:52.847Z,8.87
2023-04-24T09:49:31.597Z,8.90
2023-04-24T09:52:11.261Z,8.96
2023-04-24T09:54:39.637Z,9.06
2023-04-24T09:57:09.648Z,9.14
2023-04-24T09:59:37.528Z,9.29
2023-04-24T10:02:04.662Z,9.36
2023-04-24T10:04:31.726Z,9.44
2023-04-24T10:06:59.281Z,9.51
2023-04-24T10:09:28.072Z,9.64
2023-04-24T10:11:56.176Z,9.71
2023-04-24T10:14:26.877Z,9.83
2023-04-24T10:17:00.092Z,9.89
2023-04-24T10:19:28.044Z,10.02
2023-04-24T10:21:56.964Z,10.17
2023-04-24T10:24:24.077Z,10.32
2023-04-24T10:26:51.236Z,10.44
2023-04-24T10:29:20.243Z,10.48
2023-04-24T10:31:48.255Z,10.59
2023-04-24T10:34:18.820Z,10.58
2023-04-24T10:36:58.381Z,10.75
2023-04-24T10:39:27.366Z,10.89
2023-04-24T10:41:58.695Z,10.97
2023-04-24T10:44:26.035Z,11.07
2023-04-24T10:46:57.582Z,11.06
2023-04-24T10:49:32.760Z,11.12
2023-04-24T10:52:08.065Z,11.12
2023-04-24T10:54:46.040Z,11.06
2023-04-24T10:57:19.588Z,11.12
2023-04-24T10:59:52.660Z,11.25
2023-04-24T11:02:20.042Z,11.25
2023-04-24T11:04:47.690Z,11.23
2023-04-24T11:07:14.877Z,11.20
2023-04-24T11:09:44.561Z,11.29
2023-04-24T11:12:14.044Z,11.39
2023-04-24T11:15:00.630Z,11.50
2023-04-24T11:17:39.406Z,11.55
2023-04-24T11:20:26.934Z,11.63
2023-04-24T11:22:56.628Z,11.77
2023-04-24T11:25:24.240Z,11.82
2023-04-24T11:27:51.674Z,11.89
2023-04-24T11:30:21.475Z,12.13
2023-04-24T11:32:52.198Z,12.11
2023-04-24T11:35:22.485Z,12.31
2023-04-24T11:38:18.810Z,12.33
2023-04-24T11:40:39.798Z,12.33
2023-04-24T11:43:08.433Z,12.40
2023-04-24T11:45:35.997Z,12.45
2023-04-24T11:48:04.968Z,12.41
2023-04-24T11:50:32.222Z,12.43
2023-04-24T11:53:00.258Z,12.42
2023-04-24T11:55:29.684Z,12.33
2023-04-24T11:57:59.853Z,12.25
2023-04-24T12:00:34.905Z,12.19
2023-04-24T12:03:06.997Z,12.00
2023-04-24T12:05:34.693Z,11.94
2023-04-24T12:08:01.835Z,11.82
2023-04-24T12:10:32.145Z,11.77
2023-04-24T12:13:01.179Z,11.66
2023-04-24T12:15:28.966Z,11.61
2023-04-24T12:17:57.905Z,11.56
2023-04-24T12:20:31.414Z,11.47
2023-04-24T12:23:01.724Z,11.38
2023-04-24T12:25:32.051Z,11.39
2023-04-24T12:28:05.682Z,11.27
2023-04-24T12:30:45.921Z,11.20
2023-04-24T12:33:13.138Z,11.16
2023-04-24T12:35:42.330Z,11.08
2023-04-24T12:38:12.642Z,11.00
2023-04-24T12:40:39.746Z,10.99
2023-04-24T12:43:18.563Z,10.90
2023-04-24T12:45:46.393Z,10.79
2023-04-24T12:48:15.424Z,10.77
2023-04-24T12:50:46.400Z,10.77
2023-04-24T12:53:15.156Z,10.76
2023-04-24T12:55:42.057Z,10.78
2023-04-24T12:58:09.363Z,10.81
2023-04-24T13:00:36.443Z,10.79
2023-04-24T13:03:04.501Z,10.80
2023-04-24T13:05:32.024Z,10.84
2023-04-24T13:07:59.712Z,10.87
2023-04-24T13:10:26.652Z,10.92
2023-04-24T13:12:53.989Z,10.96
2023-04-24T13:15:21.345Z,11.10
2023-04-24T13:17:48.261Z,11.15
2023-04-24T13:20:15.757Z,11.17
2023-04-24T13:22:42.684Z,11.19
2023-04-24T13:25:10.437Z,11.24
2023-04-24T13:27:39.988Z,11.23
2023-04-24T13:30:08.296Z,11.15
2023-04-24T13:32:36.716Z,11.12
2023-04-24T13:35:04.106Z,11.07
2023-04-24T13:37:31.200Z,11.01
2023-04-24T13:39:58.212Z,11.02
2023-04-24T13:42:25.204Z,11.02
2023-04-24T13:44:52.428Z,11.12
2023-04-24T13:47:19.623Z,11.19
2023-04-24T13:49:46.520Z,11.15
2023-04-24T13:52:13.713Z,11.22
2023-04-24T13:54:40.613Z,11.27
2023-04-24T13:57:07.593Z,11.26
2023-04-24T13:59:34.543Z,11.22
2023-04-24T14:02:01.501Z,11.20
2023-04-24T14:04:29.219Z,11.18
2023-04-24T14:06:56.212Z,11.10
2023-04-24T14:09:24.279Z,11.10
2023-04-24T14:11:52.657Z,11.07
2023-04-24T14:14:19.577Z,10.97
2023-04-24T14:16:46.683Z,10.86
2023-04-24T14:19:13.734Z,10.85
2023-04-24T14:21:40.761Z,10.85
2023-04-24T14:24:10.760Z,10.86
2023-04-24T14:26:37.741Z,10.88
2023-04-24T14:29:14.095Z,10.86
2023-04-24T14:31:43.093Z,10.88
2023-04-24T14:34:10.684Z,10.83
2023-04-24T14:36:37.660Z,10.91
2023-04-24T14:39:08.343Z,10.90
2023-04-24T14:41:38.744Z,10.95
2023-04-24T14:44:06.149Z,10.99
2023-04-24T14:46:33.212Z,10.99
2023-04-24T14:49:00.140Z,11.02
2023-04-24T14:51:27.158Z,11.02
2023-04-24T14:53:54.448Z,10.94
2023-04-24T14:56:21.480Z,10.95
2023-04-24T14:58:48.639Z,10.91
2023-04-24T15:01:17.728Z,10.89
2023-04-24T15:03:45.629Z,10.84
2023-04-24T15:06:13.171Z,10.70
2023-04-24T15:08:40.348Z,10.57
2023-04-24T15:11:07.535Z,10.46
2023-04-24T15:13:34.677Z,10.47
2023-04-24T15:16:01.735Z,10.27
2023-04-24T15:18:30.169Z,10.32
2023-04-24T15:20:57.791Z,10.28
2023-04-24T15:23:24.757Z,10.24
2023-04-24T15:25:51.779Z,10.29
2023-04-24T15:28:19.203Z,10.26
2023-04-24T15:30:46.298Z,10.24
2023-04-24T15:33:13.638Z,10.26
2023-04-24T15:35:41.559Z,10.25
2023-04-24T15:38:08.644Z,10.21
2023-04-24T15:40:35.588Z,10.15
2023-04-24T15:43:02.451Z,10.13
2023-04-24T15:45:29.828Z,10.13
2023-04-24T15:47:56.982Z,10.14
2023-04-24T15:50:24.873Z,10.14
2023-04-24T15:52:51.749Z,10.15
2023-04-24T15:55:18.734Z,10.18
2023-04-24T15:57:46.179Z,10.19
2023-04-24T16:00:14.195Z,10.23
2023-04-24T16:02:41.762Z,10.23
2023-04-24T16:05:09.805Z,10.26
2023-04-24T16:07:39.224Z,10.22
2023-04-24T16:10:06.828Z,10.23
2023-04-24T16:12:34.039Z,10.25
2023-04-24T16:15:01.479Z,10.21
2023-04-24T16:17:28.489Z,10.19
2023-04-24T16:19:55.384Z,10.19
2023-04-24T16:22:22.451Z,10.13
2023-04-24T16:24:49.731Z,10.11
2023-04-24T16:27:16.729Z,10.07
2023-04-24T16:29:43.750Z,10.08
2023-04-24T16:32:11.371Z,10.09
2023-04-24T16:34:38.317Z,10.08
2023-04-24T16:37:06.601Z,10.05
2023-04-24T16:39:34.190Z,10.05
2023-04-24T16:42:02.077Z,10.05
2023-04-24T16:44:29.081Z,10.04
2023-04-24T16:46:56.507Z,10.00
2023-04-24T16:49:31.191Z,9.88
2023-04-24T16:51:58.105Z,9.68
2023-04-24T16:54:25.827Z,9.65
2023-04-24T16:56:55.596Z,9.56
2023-04-24T16:59:23.675Z,9.48
2023-04-24T17:01:50.577Z,9.45
2023-04-24T17:04:17.860Z,9.35
2023-04-24T17:06:45.138Z,9.36
2023-04-24T17:09:13.706Z,9.30
2023-04-24T17:11:40.631Z,9.29
2023-04-24T17:14:07.575Z,9.30
2023-04-24T17:16:35.006Z,9.30
2023-04-24T17:19:01.884Z,9.28
2023-04-24T17:21:28.782Z,9.24
2023-04-24T17:23:56.412Z,9.20
2023-04-24T17:26:23.343Z,9.15
2023-04-24T17:28:51.094Z,9.12
2023-04-24T17:31:18.144Z,9.09
2023-04-24T17:33:45.053Z,9.05
2023-04-24T17:36:12.464Z,9.04
2023-04-24T17:38:39.599Z,9.04
2023-04-24T17:41:07.304Z,9.01
2023-04-24T17:43:34.349Z,8.95
2023-04-24T17:46:01.810Z,8.90
2023-04-24T17:48:28.739Z,8.92
2023-04-24T17:50:56.615Z,8.90
2023-04-24T17:53:23.593Z,8.87
2023-04-24T17:55:50.644Z,8.86
2023-04-24T17:58:19.349Z,8.77
2023-04-24T18:00:46.521Z,8.78
2023-04-24T18:03:13.709Z,8.72
2023-04-24T18:05:40.928Z,8.66
2023-04-24T18:08:07.896Z,8.69
2023-04-24T18:10:37.991Z,8.67
2023-04-24T18:13:05.660Z,8.65
2023-04-24T18:15:32.962Z,8.66
2023-04-24T18:17:59.968Z,8.64
2023-04-24T18:20:27.987Z,8.60
2023-04-24T18:22:55.094Z,8.60
2023-04-24T18:25:27.113Z,8.60
2023-04-24T18:27:57.245Z,8.61
2023-04-24T18:30:24.935Z,8.56
2023-04-24T18:32:54.152Z,8.51
2023-04-24T18:35:22.405Z,8.38
2023-04-24T18:37:51.010Z,8.37
2023-04-24T18:40:18.093Z,8.28
2023-04-24T18:42:45.243Z,8.24
2023-04-24T18:45:14.976Z,8.15
2023-04-24T18:47:43.073Z,8.09
2023-04-24T18:50:11.311Z,8.06
2023-04-24T18:52:38.222Z,8.02
2023-04-24T18:55:07.444Z,7.98
2023-04-24T18:57:34.434Z,8.00
2023-04-24T19:00:01.520Z,7.99
2023-04-24T19:02:28.915Z,7.93
2023-04-24T19:04:55.974Z,7.93
2023-04-24T19:07:23.113Z,7.95
2023-04-24T19:09:49.990Z,7.88
2023-04-24T19:12:17.263Z,7.88
2023-04-24T19:14:46.305Z,7.87
2023-04-24T19:17:13.444Z,7.83
2023-04-24T19:19:40.621Z,7.80
2023-04-24T19:22:07.923Z,7.76
2023-04-24T19:24:35.107Z,7.78
2023-04-24T19:27:02.490Z,7.72
2023-04-24T19:29:29.409Z,7.72
2023-04-24T19:31:58.827Z,7.72
2023-04-24T19:34:26.414Z,7.71
2023-04-24T19:36:53.579Z,7.65
2023-04-24T19:39:20.515Z,7.65
2023-04-24T19:41:47.651Z,7.55
2023-04-24T19:44:15.815Z,7.59
2023-04-24T19:46:43.488Z,7.59
2023-04-24T19:49:10.548Z,7.54
2023-04-24T19:51:37.861Z,7.48
2023-04-24T19:54:06.596Z,7.48
2023-04-24T19:56:34.055Z,7.42
2023-04-24T19:59:01.283Z,7.43
2023-04-24T20:01:28.755Z,7.42
2023-04-24T20:03:55.961Z,7.39
2023-04-24T20:06:24.474Z,7.37
2023-04-24T20:08:51.561Z,7.35
2023-04-24T20:11:18.895Z,7.31
2023-04-24T20:13:46.097Z,7.32
2023-04-24T20:16:13.470Z,7.29
2023-04-24T20:18:40.467Z,7.24
2023-04-24T20:21:07.760Z,7.23
2023-04-24T20:23:34.685Z,7.17
2023-04-24T20:26:02.103Z,7.18
2023-04-24T20:28:30.472Z,7.15
2023-04-24T20:30:59.760Z,7.09
2023-04-24T20:33:28.249Z,7.07
2023-04-24T20:35:55.932Z,6.98
2023-04-24T20:38:24.597Z,6.98
2023-04-24T20:43:23.234Z,6.87
2023-04-24T20:45:50.898Z,6.87
2023-04-24T20:48:17.907Z,6.88
2023-04-24T20:50:45.401Z,6.81
2023-04-24T20:53:12.532Z,6.76
2023-04-24T20:55:39.635Z,6.77
2023-04-24T20:58:06.722Z,6.71
2023-04-24T21:00:34.158Z,6.72
2023-04-24T21:03:01.776Z,6.72
2023-04-24T21:05:28.777Z,6.69
2023-04-24T21:07:56.425Z,6.66
2023-04-24T21:10:26.884Z,6.64
2023-04-24T21:12:53.808Z,6.64
2023-04-24T21:15:20.740Z,6.63
2023-04-24T21:17:47.993Z,6.57
2023-04-24T21:20:14.933Z,6.54
2023-04-24T21:22:43.903Z,6.53
2023-04-24T21:25:11.440Z,6.49
2023-04-24T21:27:38.557Z,6.48
2023-04-24T21:30:07.122Z,6.41
2023-04-24T21:32:34.325Z,6.41
2023-04-24T21:35:01.841Z,6.39
2023-04-24T21:37:33.202Z,6.34
2023-04-24T21:40:00.140Z,6.30
2023-04-24T21:42:27.127Z,6.22
2023-04-24T21:44:54.217Z,6.18
2023-04-24T21:47:21.186Z,6.11
2023-04-24T21:49:48.387Z,6.05
2023-04-24T21:52:15.360Z,5.98
2023-04-24T21:54:42.460Z,5.93
2023-04-24T21:57:09.796Z,5.85
2023-04-24T21:59:36.915Z,5.77
2023-04-24T22:02:04.350Z,5.73
2023-04-24T22:04:31.540Z,5.70
2023-04-24T22:06:59.369Z,5.61
2023-04-24T22:09:26.384Z,5.55
2023-04-24T22:11:53.321Z,5.49
2023-04-24T22:14:23.286Z,5.38
2023-04-24T22:16:50.838Z,5.30
2023-04-24T22:19:18.182Z,5.25
2023-04-24T22:21:45.191Z,5.19
2023-04-24T22:24:12.354Z,5.12
2023-04-24T22:26:39.447Z,5.05
2023-04-24T22:29:06.933Z,5.00
2023-04-24T22:31:34.639Z,4.95
2023-04-24T22:34:01.685Z,4.88
2023-04-24T22:36:28.880Z,4.81
2023-04-24T22:38:56.163Z,4.76
2023-04-24T22:41:23.609Z,4.72
2023-04-24T22:43:51.081Z,4.68
2023-04-24T22:46:18.210Z,4.64
2023-04-24T22:48:45.951Z,4.60
2023-04-24T22:51:13.280Z,4.55
2023-04-24T22:53:40.345Z,4.52
2023-04-24T22:56:07.927Z,4.45
2023-04-24T22:58:34.842Z,4.42
2023-04-24T23:01:01.834Z,4.39
2023-04-24T23:03:28.919Z,4.36
2023-04-24T23:05:56.144Z,4.32
2023-04-24T23:08:23.058Z,4.29
2023-04-24T23:10:50.027Z,4.27
2023-04-24T23:13:17.446Z,4.25
2023-04-24T23:15:44.727Z,4.23
2023-04-24T23:18:12.650Z,4.21
2023-04-24T23:20:39.908Z,4.20
2023-04-24T23:23:06.797Z,4.17
2023-04-24T23:25:34.167Z,4.14
2023-04-24T23:28:01.358Z,4.08
2023-04-24T23:30:28.403Z,4.06
2023-04-24T23:32:55.518Z,4.00
2023-04-24T23:35:22.529Z,3.92
2023-04-24T23:37:49.464Z,3.84
2023-04-24T23:40:16.464Z,3.78
2023-04-24T23:42:43.522Z,3.67
2023-04-24T23:45:11.328Z,3.61
2023-04-24T23:47:38.436Z,3.50
2023-04-24T23:50:06.124Z,3.44
2023-04-24T23:52:34.778Z,3.38
2023-04-24T23:55:03.851Z,3.33
2023-04-24T23:57:32.397Z,3.29
2023-04-24T23:59:59.668Z,3.24
